.
WxDataArchive / Data Records for 2012-11-12
2012-11-11 November 2012 2012-11-13

Data Records for Monday, 12 November 2012

Time	Temp	Chill	HIndex	Humid	Dewpt	 Wind 	HiWind	WindDir	Rain 	Barom 
-----	----	-----	------	-----	-----	------	------	-------	-----	----- 
00:00	61.2	61.2	61.2	50	42.4	3	11	90	0.00	29.935 
00:05	61.2	61.2	61.2	50	42.4	2	8	22	0.00	29.935 
00:10	61.2	61.2	61.2	51	42.9	2	7	45	0.00	29.935 
00:15	61.0	61.0	61.0	51	42.7	2	7	90	0.00	29.934 
00:20	61.0	61.0	61.0	51	42.7	3	11	68	0.00	29.934 
00:25	61.2	61.2	61.2	52	43.4	2	6	90	0.00	29.934 
00:30	61.0	61.0	61.0	53	43.7	2	7	270	0.00	29.929 
00:35	61.0	61.0	61.0	57	45.7	2	9	315	0.00	29.929 
00:40	60.4	60.4	60.4	59	46.0	3	10	90	0.00	29.929 
00:45	59.9	59.9	59.9	63	47.3	3	7	90	0.00	29.922 
00:50	59.3	59.3	59.3	64	47.1	1	6	45	0.00	29.922 
00:55	59.2	59.2	59.2	63	46.6	2	6	0	0.00	29.922 
01:00	59.3	59.3	59.3	63	46.7	2	5	90	0.00	29.922 
01:05	59.6	59.6	59.6	62	46.6	2	8	248	0.00	29.922 
01:10	59.8	59.8	59.8	62	46.8	2	5	90	0.00	29.922 
01:15	60.1	60.1	60.1	61	46.6	3	11	68	0.00	29.919 
01:20	60.4	60.4	60.4	60	46.4	3	12	248	0.00	29.919 
01:25	60.7	60.7	60.7	60	46.7	3	12	248	0.00	29.919 
01:30	60.7	60.7	60.7	62	47.6	2	6	270	0.00	29.920 
01:35	60.2	60.2	60.2	63	47.6	2	6	248	0.00	29.920 
01:40	59.9	59.9	59.9	66	48.5	2	10	248	0.00	29.920 
01:45	59.5	59.5	59.5	67	48.5	1	5	292	0.00	29.921 
01:50	59.2	59.2	59.2	68	48.6	1	6	225	0.00	29.921 
01:55	59.0	59.0	59.0	69	48.8	2	7	270	0.00	29.921 
02:00	58.9	58.9	58.9	70	49.1	2	13	45	0.00	29.920 
02:05	58.7	58.7	58.7	73	50.1	2	9	90	0.01	29.920 
02:10	58.3	58.3	58.3	77	51.1	2	10	248	0.00	29.920 
02:15	57.6	57.6	57.6	81	51.8	2	9	248	0.01	29.932 
02:20	57.0	57.0	57.0	83	51.9	2	7	248	0.01	29.932 
02:25	56.6	56.6	56.6	85	52.1	1	5	248	0.02	29.932 
02:30	56.3	56.3	56.3	86	52.2	1	3	270	0.02	29.935 
02:35	56.0	56.0	56.0	87	52.2	1	5	248	0.01	29.935 
02:40	55.7	55.7	55.7	88	52.2	1	5	292	0.01	29.935 
02:45	55.6	55.6	55.6	89	52.4	1	5	248	0.00	29.930 
02:50	55.4	55.4	55.4	90	52.5	1	4	225	0.01	29.930 
02:55	55.3	55.3	55.3	90	52.4	1	3	45	0.01	29.930 
03:00	55.1	55.1	55.1	91	52.5	1	4	68	0.00	29.929 
03:05	55.0	55.0	55.0	91	52.4	1	4	68	0.01	29.929 
03:10	55.0	55.0	55.0	91	52.4	1	3	338	0.00	29.929 
03:15	54.8	54.8	54.8	92	52.5	1	3	45	0.01	29.926 
03:20	54.8	54.8	54.8	92	52.5	0	3	270	0.00	29.926 
03:25	54.8	54.8	54.8	92	52.5	1	4	248	0.00	29.926 
03:30	54.8	54.8	54.8	92	52.5	0	2	248	0.01	29.925 
03:35	54.8	54.8	54.8	92	52.5	1	6	248	0.00	29.925 
03:40	54.8	54.8	54.8	92	52.5	0	2	248	0.01	29.925 
03:45	54.8	54.8	54.8	93	52.8	1	4	248	0.00	29.924 
03:50	54.7	54.7	54.7	93	52.7	1	4	45	0.00	29.924 
03:55	54.7	54.7	54.7	93	52.7	1	4	248	0.01	29.924 
04:00	54.7	54.7	54.7	93	52.7	2	4	248	0.00	29.924 
04:05	53.8	53.8	53.8	92	51.5	1	5	248	0.01	29.924 
04:10	53.1	53.1	53.1	92	50.8	1	4	248	0.00	29.924 
04:15	52.8	52.8	52.8	92	50.5	0	2	248	0.00	29.929 
04:20	52.5	52.5	52.5	93	50.5	0	2	248	0.01	29.929 
04:25	52.3	52.3	52.3	93	50.3	1	4	248	0.01	29.929 
04:30	52.2	52.2	52.2	93	50.2	0	2	248	0.00	29.928 
04:35	52.2	52.2	52.2	93	50.2	0	4	248	0.00	29.928 
04:40	52.0	52.0	52.0	93	50.0	0	2	248	0.01	29.928 
04:45	52.0	52.0	52.0	93	50.0	0	1	248	0.01	29.934 
04:50	51.9	51.9	51.9	93	49.9	0	1	248	0.00	29.934 
04:55	51.9	51.9	51.9	93	49.9	0	1	248	0.01	29.934 
05:00	51.7	51.7	51.7	93	49.7	1	4	248	0.01	29.931 
05:05	51.6	51.6	51.6	93	49.6	0	2	248	0.00	29.931 
05:10	51.4	51.4	51.4	93	49.4	0	2	248	0.01	29.931 
05:15	51.3	51.3	51.3	93	49.3	1	3	248	0.01	29.941 
05:20	51.3	51.3	51.3	93	49.3	0	3	248	0.01	29.941 
05:25	51.1	51.1	51.1	94	49.4	0	1	248	0.01	29.941 
05:30	51.1	51.1	51.1	94	49.4	0	1	248	0.01	29.931 
05:35	51.0	51.0	51.0	94	49.3	0	1	248	0.01	29.931 
05:40	51.0	51.0	51.0	94	49.3	0	2	248	0.00	29.931 
05:45	50.8	50.8	50.8	94	49.1	0	1	248	0.00	29.922 
05:50	50.8	50.8	50.8	94	49.1	0	1	248	0.00	29.922 
05:55	50.8	50.8	50.8	94	49.1	0	2	248	0.01	29.922 
06:00	50.8	50.8	50.8	94	49.1	0	2	248	0.01	29.931 
06:05	50.8	50.8	50.8	94	49.1	0	2	248	0.01	29.931 
06:10	50.7	50.7	50.7	94	49.0	0	3	248	0.02	29.931 
06:15	50.7	50.7	50.7	94	49.0	0	2	248	0.01	29.930 
06:20	50.7	50.7	50.7	94	49.0	0	2	248	0.01	29.930 
06:25	50.7	50.7	50.7	94	49.0	0	4	248	0.00	29.930 
06:30	50.7	50.7	50.7	94	49.0	0	2	248	0.01	29.936 
06:35	50.7	50.7	50.7	94	49.0	0	2	248	0.00	29.936 
06:40	50.7	50.7	50.7	94	49.0	1	3	248	0.00	29.936 
06:45	48.5	47.1	48.5	92	46.3	4	10	270	0.00	29.951 
06:50	46.7	46.7	46.7	92	44.5	3	5	292	0.00	29.951 
06:55	46.0	46.0	46.0	93	44.1	2	5	315	0.01	29.951 
07:00	45.7	45.7	45.7	93	43.8	1	4	315	0.00	29.955 
07:05	45.4	45.4	45.4	93	43.5	1	5	338	0.00	29.955 
07:10	44.9	44.9	44.9	93	43.0	2	4	270	0.00	29.955 
07:15	44.6	44.6	44.6	93	42.7	2	7	248	0.00	29.972 
07:20	44.3	44.3	44.3	93	42.4	2	6	248	0.01	29.972 
07:25	44.1	44.1	44.1	93	42.2	1	3	248	0.00	29.972 
07:30	43.9	43.9	43.9	93	42.0	1	3	248	0.00	29.969 
07:35	43.8	43.8	43.8	93	41.9	1	3	248	0.00	29.969 
07:40	43.8	43.8	43.8	93	41.9	1	3	248	0.00	29.969 
07:45	43.6	43.6	43.6	93	41.7	1	3	248	0.01	29.985 
07:50	43.5	43.5	43.5	93	41.6	1	3	248	0.00	29.985 
07:55	43.5	43.5	43.5	93	41.6	1	4	248	0.00	29.985 
08:00	43.5	43.5	43.5	93	41.6	2	5	248	0.01	29.994 
08:05	43.3	43.3	43.3	93	41.4	1	5	248	0.00	29.994 
08:10	43.2	43.2	43.2	93	41.3	1	3	248	0.01	29.994 
08:15	43.1	43.1	43.1	93	41.2	2	5	248	0.00	29.995 
08:20	43.1	43.1	43.1	93	41.2	1	2	248	0.00	29.995 
08:25	42.9	42.9	42.9	93	41.0	2	4	270	0.00	29.995 
08:30	42.8	42.8	42.8	93	40.9	2	5	248	0.00	29.992 
08:35	42.8	42.8	42.8	93	40.9	1	3	248	0.00	29.992 
08:40	42.8	42.8	42.8	93	40.9	1	5	248	0.00	29.992 
08:45	42.6	42.6	42.6	93	40.7	2	4	248	0.00	30.014 
08:50	42.5	42.5	42.5	93	40.6	2	4	270	0.00	30.014 
08:55	41.9	41.9	41.9	93	40.0	2	5	248	0.00	30.014 
09:00	41.3	41.3	41.3	93	39.4	3	10	248	0.00	30.025 
09:05	41.1	41.1	41.1	93	39.2	1	4	248	0.01	30.025 
09:10	40.9	40.9	40.9	93	39.0	2	4	248	0.00	30.025 
09:15	40.6	40.6	40.6	93	38.7	2	5	248	0.00	30.030 
09:20	40.3	40.3	40.3	93	38.4	3	6	248	0.00	30.030 
09:25	40.3	40.3	40.3	93	38.4	1	4	248	0.00	30.030 
09:30	40.1	40.1	40.1	93	38.2	2	4	248	0.00	30.038 
09:35	39.3	36.5	39.3	92	37.2	4	6	270	0.01	30.038 
09:40	38.6	35.7	38.6	92	36.5	4	7	248	0.00	30.038 
09:45	38.2	38.2	38.2	90	35.5	3	6	270	0.00	30.052 
09:50	38.2	38.2	38.2	92	36.1	3	6	248	0.00	30.052 
09:55	38.0	38.0	38.0	92	35.9	2	4	248	0.00	30.052 
10:00	37.8	37.8	37.8	92	35.7	3	5	248	0.00	30.059 
10:05	37.3	37.3	37.3	91	34.9	3	6	270	0.00	30.059 
10:10	37.0	37.0	37.0	91	34.6	3	5	248	0.00	30.059 
10:15	36.9	36.9	36.9	91	34.5	3	7	248	0.00	30.072 
10:20	36.9	36.9	36.9	91	34.5	2	7	270	0.00	30.072 
10:25	36.5	36.5	36.5	91	34.1	3	10	248	0.00	30.072 
10:30	36.0	36.0	36.0	90	33.4	3	8	248	0.00	30.088 
10:35	35.8	35.8	35.8	91	33.4	2	6	248	0.00	30.088 
10:40	35.3	35.3	35.3	91	32.9	3	7	248	0.01	30.088 
10:45	34.9	34.9	34.9	90	32.3	3	6	248	0.00	30.089 
10:50	34.4	34.4	34.4	91	32.0	2	5	270	0.00	30.089 
10:55	34.3	34.3	34.3	91	32.0	1	4	248	0.00	30.089 
11:00	34.1	34.1	34.1	91	31.8	2	5	248	0.00	30.094 
11:05	34.0	34.0	34.0	92	31.9	2	7	248	0.01	30.094 
11:10	33.8	33.8	33.8	92	31.7	2	5	248	0.00	30.094 
11:15	33.7	33.7	33.7	92	31.6	3	7	248	0.00	30.100 
11:20	33.7	33.7	33.7	92	31.6	3	10	270	0.00	30.100 
11:25	33.5	33.5	33.5	92	31.4	1	3	248	0.00	30.100 
11:30	33.8	33.8	33.8	92	31.7	1	3	248	0.01	30.091 
11:35	34.1	34.1	34.1	92	32.0	1	5	248	0.00	30.091 
11:40	34.6	34.6	34.6	93	32.8	1	6	248	0.00	30.091 
11:45	34.6	34.6	34.6	92	32.5	3	10	248	0.00	30.112 
11:50	34.6	31.1	34.6	92	32.5	4	11	248	0.00	30.112 
11:55	34.6	34.6	34.6	92	32.5	3	6	248	0.00	30.112 
12:00	34.7	34.7	34.7	92	32.6	3	10	270	0.00	30.100 
12:05	34.6	34.6	34.6	92	32.5	3	9	248	0.00	30.100 
12:10	34.6	34.6	34.6	92	32.5	3	9	248	0.00	30.100 
12:15	34.6	34.6	34.6	91	32.2	3	6	248	0.00	30.101 
12:20	34.6	34.6	34.6	91	32.2	3	5	248	0.00	30.101 
12:25	34.6	34.6	34.6	90	32.0	3	6	248	0.00	30.101 
12:30	34.7	34.7	34.7	90	32.1	3	7	248	0.00	30.107 
12:35	34.6	34.6	34.6	89	31.7	3	6	248	0.00	30.107 
12:40	34.6	34.6	34.6	88	31.4	2	7	248	0.00	30.107 
12:45	34.6	34.6	34.6	88	31.4	2	6	248	0.00	30.101 
12:50	34.4	34.4	34.4	87	30.9	2	5	248	0.00	30.101 
12:55	34.4	34.4	34.4	87	30.9	3	10	248	0.00	30.101 
13:00	34.6	34.6	34.6	87	31.1	2	6	248	0.00	30.093 
13:05	34.7	34.7	34.7	87	31.2	3	7	248	0.00	30.093 
13:10	34.7	34.7	34.7	86	30.9	2	4	248	0.00	30.093 
13:15	34.6	34.6	34.6	84	30.3	3	6	248	0.00	30.103 
13:20	34.4	34.4	34.4	84	30.1	3	10	248	0.00	30.103 
13:25	34.3	34.3	34.3	83	29.7	2	7	248	0.00	30.103 
13:30	34.1	30.5	34.1	81	28.9	4	12	248	0.00	30.111 
13:35	34.6	34.6	34.6	82	29.7	2	7	248	0.00	30.111 
13:40	35.0	31.5	35.0	79	29.2	4	9	270	0.00	30.111 
13:45	34.9	34.9	34.9	76	28.1	3	7	270	0.00	30.109 
13:50	34.7	34.7	34.7	75	27.6	3	6	292	0.00	30.109 
13:55	35.0	35.0	35.0	74	27.6	3	7	248	0.00	30.109 
14:00	35.2	31.8	35.2	71	26.8	4	7	270	0.00	30.114 
14:05	35.6	35.6	35.6	72	27.5	3	6	270	0.00	30.114 
14:10	36.2	32.9	36.2	71	27.7	4	7	248	0.00	30.114 
14:15	36.8	36.8	36.8	69	27.6	3	6	248	0.00	30.122 
14:20	37.2	37.2	37.2	69	28.0	2	5	248	0.00	30.122 
14:25	36.9	36.9	36.9	67	27.0	3	6	248	0.00	30.122 
14:30	36.5	36.5	36.5	67	26.6	2	4	248	0.00	30.117 
14:35	37.0	37.0	37.0	68	27.4	2	4	248	0.00	30.117 
14:40	37.8	37.8	37.8	66	27.5	3	10	248	0.00	30.117 
14:45	37.9	37.9	37.9	65	27.2	2	5	248	0.00	30.124 
14:50	37.9	37.9	37.9	65	27.2	3	7	270	0.00	30.124 
14:55	38.0	35.0	38.0	63	26.5	4	8	270	0.00	30.124 
15:00	38.3	35.4	38.3	63	26.8	4	10	248	0.00	30.126 
15:05	38.2	34.4	38.2	62	26.3	5	11	248	0.00	30.126 
15:10	37.9	34.9	37.9	61	25.7	4	9	248	0.00	30.126 
15:15	37.8	34.8	37.8	62	26.0	4	11	248	0.00	30.124 
15:20	38.0	38.0	38.0	62	26.2	3	6	270	0.00	30.124 
15:25	38.2	38.2	38.2	62	26.3	3	6	270	0.00	30.124 
15:30	38.2	35.2	38.2	61	26.0	4	10	248	0.00	30.127 
15:35	38.2	35.2	38.2	59	25.2	4	10	270	0.00	30.127 
15:40	37.9	34.9	37.9	57	24.0	4	9	270	0.00	30.127 
15:45	37.9	37.9	37.9	58	24.5	3	7	248	0.00	30.139 
15:50	37.8	37.8	37.8	58	24.4	3	8	248	0.00	30.139 
15:55	37.6	34.5	37.6	58	24.2	4	12	248	0.00	30.139 
16:00	37.5	34.4	37.5	58	24.1	4	6	270	0.00	30.141 
16:05	37.3	34.2	37.3	60	24.7	4	6	248	0.00	30.141 
16:10	37.5	37.5	37.5	60	24.9	2	4	248	0.00	30.141 
16:15	37.6	37.6	37.6	58	24.2	3	7	248	0.00	30.153 
16:20	37.2	34.1	37.2	55	22.5	4	10	270	0.00	30.153 
16:25	36.9	36.9	36.9	56	22.7	3	6	270	0.00	30.153 
16:30	36.6	32.5	36.6	56	22.4	5	12	248	0.00	30.161 
16:35	36.5	33.3	36.5	56	22.3	4	10	248	0.00	30.161 
16:40	36.5	36.5	36.5	56	22.3	3	9	270	0.00	30.161 
16:45	36.2	32.9	36.2	56	22.0	4	11	270	0.00	30.169 
16:50	36.0	32.7	36.0	57	22.3	4	9	248	0.00	30.169 
16:55	35.8	32.5	35.8	58	22.5	4	7	270	0.00	30.169 
17:00	35.6	35.6	35.6	59	22.7	3	9	248	0.00	30.177 
17:05	35.3	31.9	35.3	59	22.4	4	11	248	0.00	30.177 
17:10	35.2	35.2	35.2	60	22.7	3	7	248	0.00	30.177 
17:15	35.0	31.5	35.0	59	22.1	4	9	248	0.00	30.190 
17:20	35.0	35.0	35.0	60	22.5	2	6	248	0.00	30.190 
17:25	34.9	34.9	34.9	60	22.4	3	7	248	0.00	30.190 
17:30	34.7	34.7	34.7	60	22.3	3	5	248	0.00	30.202 
17:35	34.6	34.6	34.6	61	22.6	2	9	248	0.00	30.202 
17:40	34.3	34.3	34.3	61	22.3	3	9	248	0.00	30.202 
17:45	34.1	34.1	34.1	60	21.7	3	9	248	0.00	30.209 
17:50	34.0	34.0	34.0	61	22.0	2	4	248	0.00	30.209 
17:55	33.8	33.8	33.8	62	22.2	2	6	248	0.00	30.209 
18:00	33.7	33.7	33.7	62	22.1	1	4	248	0.00	30.214 
18:05	33.7	33.7	33.7	62	22.1	2	5	248	0.00	30.214 
18:10	33.5	33.5	33.5	63	22.3	2	5	248	0.00	30.214 
18:15	33.5	33.5	33.5	63	22.3	2	6	248	0.00	30.228 
18:20	33.4	33.4	33.4	63	22.2	2	7	248	0.00	30.228 
18:25	33.4	33.4	33.4	63	22.2	3	9	248	0.00	30.228 
18:30	33.4	33.4	33.4	63	22.2	3	5	248	0.00	30.237 
18:35	33.4	33.4	33.4	63	22.2	2	7	248	0.00	30.237 
18:40	33.2	33.2	33.2	63	22.0	2	4	248	0.00	30.237 
18:45	33.2	33.2	33.2	63	22.0	2	6	248	0.00	30.247 
18:50	33.1	33.1	33.1	64	22.3	1	5	248	0.00	30.247 
18:55	32.9	32.9	32.9	65	22.4	2	5	248	0.00	30.247 
19:00	33.1	33.1	33.1	65	22.6	2	6	248	0.00	30.248 
19:05	32.9	32.9	32.9	65	22.4	1	5	248	0.00	30.248 
19:10	32.8	32.8	32.8	66	22.7	2	5	248	0.00	30.248 
19:15	32.8	32.8	32.8	66	22.7	2	11	248	0.00	30.256 
19:20	32.8	32.8	32.8	66	22.7	2	6	248	0.00	30.256 
19:25	32.8	32.8	32.8	66	22.7	2	6	248	0.00	30.256 
19:30	32.9	32.9	32.9	66	22.8	1	4	270	0.00	30.263 
19:35	33.1	33.1	33.1	66	23.0	2	6	248	0.00	30.263 
19:40	33.2	33.2	33.2	65	22.7	2	5	248	0.00	30.263 
19:45	33.4	33.4	33.4	65	22.9	3	7	270	0.00	30.265 
19:50	33.5	33.5	33.5	64	22.6	2	7	248	0.00	30.265 
19:55	33.5	33.5	33.5	64	22.6	2	5	248	0.00	30.265 
20:00	33.7	33.7	33.7	63	22.5	2	5	248	0.00	30.268 
20:05	33.7	33.7	33.7	63	22.5	2	6	248	0.00	30.268 
20:10	33.7	33.7	33.7	63	22.5	2	5	248	0.00	30.268 
20:15	33.8	33.8	33.8	63	22.6	2	6	248	0.00	30.282 
20:20	33.8	33.8	33.8	62	22.2	3	9	248	0.00	30.282 
20:25	33.8	33.8	33.8	62	22.2	3	9	248	0.00	30.282 
20:30	33.8	33.8	33.8	63	22.6	2	6	248	0.00	30.284 
20:35	33.8	33.8	33.8	63	22.6	2	5	248	0.00	30.284 
20:40	33.8	33.8	33.8	63	22.6	2	9	248	0.00	30.284 
20:45	33.8	33.8	33.8	63	22.6	2	6	225	0.00	30.291 
20:50	33.8	33.8	33.8	64	22.9	2	6	248	0.00	30.291 
20:55	33.8	33.8	33.8	64	22.9	1	5	248	0.00	30.291 
21:00	33.8	33.8	33.8	63	22.6	3	7	248	0.00	30.296 
21:05	33.8	33.8	33.8	64	22.9	2	5	248	0.00	30.296 
21:10	33.7	33.7	33.7	64	22.8	3	7	248	0.00	30.296 
21:15	33.7	33.7	33.7	64	22.8	2	6	270	0.00	30.302 
21:20	33.7	33.7	33.7	64	22.8	1	4	270	0.00	30.302 
21:25	33.7	33.7	33.7	64	22.8	2	6	248	0.00	30.302 
21:30	33.7	33.7	33.7	65	23.2	1	4	248	0.00	30.307 
21:35	33.7	33.7	33.7	65	23.2	2	5	248	0.00	30.307 
21:40	33.7	33.7	33.7	65	23.2	1	4	248	0.00	30.307 
21:45	33.7	33.7	33.7	65	23.2	2	6	248	0.00	30.312 
21:50	33.7	33.7	33.7	65	23.2	2	5	248	0.00	30.312 
21:55	33.8	33.8	33.8	65	23.3	2	5	248	0.00	30.312 
22:00	33.8	33.8	33.8	64	22.9	2	6	248	0.00	30.316 
22:05	33.8	33.8	33.8	64	22.9	2	6	248	0.00	30.316 
22:10	33.8	33.8	33.8	63	22.6	3	8	248	0.00	30.316 
22:15	33.8	33.8	33.8	64	22.9	1	4	248	0.00	30.324 
22:20	33.8	33.8	33.8	63	22.6	2	4	248	0.00	30.324 
22:25	34.0	34.0	34.0	63	22.7	2	6	248	0.00	30.324 
22:30	34.0	34.0	34.0	63	22.7	2	6	248	0.00	30.323 
22:35	34.0	34.0	34.0	63	22.7	2	5	248	0.00	30.323 
22:40	34.0	34.0	34.0	63	22.7	2	5	248	0.00	30.323 
22:45	34.0	34.0	34.0	63	22.7	2	4	248	0.00	30.324 
22:50	33.8	33.8	33.8	64	22.9	1	2	248	0.00	30.324 
22:55	33.8	33.8	33.8	63	22.6	1	4	248	0.00	30.324 
23:00	33.7	33.7	33.7	64	22.8	1	5	248	0.00	30.334 
23:05	33.8	33.8	33.8	64	22.9	2	6	248	0.00	30.334 
23:10	33.8	33.8	33.8	64	22.9	1	5	248	0.00	30.334 
23:15	33.7	33.7	33.7	65	23.2	1	4	248	0.00	30.333 
23:20	33.7	33.7	33.7	65	23.2	1	4	248	0.00	30.333 
23:25	33.7	33.7	33.7	66	23.6	1	4	248	0.00	30.333 
23:30	33.7	33.7	33.7	65	23.2	2	5	248	0.00	30.332 
23:35	33.7	33.7	33.7	65	23.2	1	4	248	0.00	30.332 
23:40	33.8	33.8	33.8	64	22.9	2	5	248	0.00	30.332 
23:45	33.8	33.8	33.8	64	22.9	2	5	248	0.00	30.334 
23:50	34.0	34.0	34.0	64	23.1	2	6	248	0.00	30.334 
23:55	34.0	34.0	34.0	64	23.1	2	6	270	0.00	30.334 

CoCoRaHS
IN-AL-39
A2 Web Hosting
Creative Commons License
GoDaddy
search engine by freefind advanced

loaded 2018-11-12 14:56:16 • last modified 2010-11-18 10:43:29
Privacy PolicyDisclaimer
• wx.awcolley.com is powered by PmWiki v.2002016 •
• all content (unless otherwise noted) © 2018 A W Colley